createdAt,value
2018-02-17T00:02:05.515Z,8.33
2018-02-17T00:04:33.100Z,8.67
2018-02-17T00:07:00.675Z,7.77
2018-02-17T00:09:29.036Z,8.33
2018-02-17T00:11:57.858Z,7.60
2018-02-17T00:14:25.452Z,7.93
2018-02-17T00:16:53.049Z,7.80
2018-02-17T00:19:21.449Z,7.70
2018-02-17T00:21:49.782Z,8.17
2018-02-17T00:24:18.259Z,9.23
2018-02-17T00:26:46.778Z,9.00
2018-02-17T00:29:14.421Z,11.50
2018-02-17T00:31:42.027Z,9.97
2018-02-17T00:34:10.358Z,11.10
2018-02-17T00:36:37.921Z,10.17
2018-02-17T00:39:05.516Z,9.27
2018-02-17T00:41:33.889Z,10.97
2018-02-17T00:44:01.457Z,10.90
2018-02-17T00:46:29.793Z,9.33
2018-02-17T00:48:57.395Z,10.53
2018-02-17T00:51:25.733Z,10.57
2018-02-17T00:53:54.096Z,9.33
2018-02-17T00:56:21.696Z,9.73
2018-02-17T00:58:49.302Z,10.60
2018-02-17T01:01:16.896Z,10.00
2018-02-17T01:03:44.454Z,11.57
2018-02-17T01:06:12.078Z,11.03
2018-02-17T01:08:39.637Z,11.50
2018-02-17T01:11:07.199Z,11.83
2018-02-17T01:13:34.825Z,10.73
2018-02-17T01:16:02.389Z,12.00
2018-02-17T01:18:30.022Z,11.10
2018-02-17T01:20:57.588Z,12.53
2018-02-17T01:23:25.155Z,11.60
2018-02-17T01:25:52.748Z,10.40
2018-02-17T01:28:21.082Z,12.37
2018-02-17T01:30:48.684Z,11.83
2018-02-17T01:33:17.015Z,11.40
2018-02-17T01:35:44.614Z,12.00
2018-02-17T01:38:12.221Z,11.87
2018-02-17T01:40:39.777Z,11.90
2018-02-17T01:43:07.375Z,12.80
2018-02-17T01:45:34.994Z,13.00
2018-02-17T01:48:02.593Z,11.47
2018-02-17T01:50:33.073Z,13.03
2018-02-17T01:53:04.107Z,14.57
2018-02-17T01:55:32.444Z,13.60
2018-02-17T01:58:00.010Z,13.37
2018-02-17T02:00:27.612Z,12.73
2018-02-17T02:02:55.226Z,12.50
2018-02-17T02:05:22.830Z,13.57
2018-02-17T02:07:50.454Z,12.97
2018-02-17T02:10:18.012Z,13.10
2018-02-17T02:12:45.616Z,12.67
2018-02-17T02:15:13.204Z,13.27
2018-02-17T02:17:40.774Z,13.37
2018-02-17T02:20:08.382Z,13.67
2018-02-17T02:22:36.707Z,13.27
2018-02-17T02:25:04.338Z,12.83
2018-02-17T02:27:31.908Z,13.83
2018-02-17T02:29:59.464Z,14.13
2018-02-17T02:32:27.855Z,14.47
2018-02-17T02:34:55.424Z,14.87
2018-02-17T02:37:23.039Z,13.90
2018-02-17T02:39:51.364Z,12.23
2018-02-17T02:42:19.707Z,13.57
2018-02-17T02:44:47.314Z,13.50
2018-02-17T02:47:14.922Z,13.57
2018-02-17T02:49:42.542Z,14.53
2018-02-17T02:52:10.105Z,12.37
2018-02-17T02:54:37.713Z,13.23
2018-02-17T02:57:05.285Z,13.43
2018-02-17T02:59:32.848Z,12.50
2018-02-17T03:02:00.474Z,13.53
2018-02-17T03:04:28.811Z,12.53
2018-02-17T03:06:56.378Z,13.50
2018-02-17T03:09:23.978Z,11.47
2018-02-17T03:11:51.556Z,11.80
2018-02-17T03:14:19.197Z,11.90
2018-02-17T03:16:46.758Z,12.03
2018-02-17T03:19:14.358Z,12.73
2018-02-17T03:21:41.955Z,11.40
2018-02-17T03:24:10.280Z,11.40
2018-02-17T03:26:37.875Z,11.00
2018-02-17T03:29:05.438Z,12.50
2018-02-17T03:31:33.005Z,12.30
2018-02-17T03:34:01.378Z,12.83
2018-02-17T03:36:28.940Z,12.13
2018-02-17T03:38:56.510Z,11.70
2018-02-17T03:41:24.876Z,13.80
2018-02-17T03:43:52.473Z,13.97
2018-02-17T03:46:20.035Z,11.97
2018-02-17T03:48:47.641Z,12.67
2018-02-17T03:51:15.226Z,13.13
2018-02-17T03:53:43.631Z,11.93
2018-02-17T03:56:11.201Z,13.73
2018-02-17T03:58:38.801Z,12.97
2018-02-17T04:01:06.405Z,13.90
2018-02-17T04:03:33.997Z,13.37
2018-02-17T04:06:01.593Z,14.00
2018-02-17T04:08:29.926Z,12.97
2018-02-17T04:10:57.526Z,13.20
2018-02-17T04:13:25.092Z,12.50
2018-02-17T04:15:53.429Z,12.13
2018-02-17T04:18:21.021Z,13.40
2018-02-17T04:20:48.611Z,14.07
2018-02-17T04:23:16.165Z,13.97
2018-02-17T04:25:43.776Z,12.17
2018-02-17T04:28:11.409Z,12.47
2018-02-17T04:30:38.981Z,13.67
2018-02-17T04:33:06.541Z,13.23
2018-02-17T04:35:34.916Z,13.63
2018-02-17T04:38:02.484Z,14.67
2018-02-17T04:40:35.657Z,15.13
2018-02-17T04:43:08.979Z,14.57
2018-02-17T04:48:44.866Z,16.60
2018-02-17T04:51:12.466Z,15.90
2018-02-17T04:53:45.649Z,14.87
2018-02-17T04:56:16.059Z,13.10
2018-02-17T04:58:52.209Z,13.90
2018-02-17T05:01:22.379Z,14.13
2018-02-17T05:03:49.936Z,15.27
2018-02-17T05:06:32.413Z,14.13
2018-02-17T05:08:59.978Z,13.33
2018-02-17T05:11:27.586Z,13.13
2018-02-17T05:13:56.981Z,13.50
2018-02-17T05:16:30.330Z,14.07
2018-02-17T05:19:12.788Z,14.37
2018-02-17T05:21:43.346Z,13.43
2018-02-17T05:24:12.500Z,14.10
2018-02-17T05:26:40.075Z,13.97
2018-02-17T05:29:24.342Z,15.10
2018-02-17T05:32:01.818Z,13.70
2018-02-17T05:34:46.124Z,14.63
2018-02-17T05:37:13.689Z,15.77
2018-02-17T05:39:41.295Z,14.70
2018-02-17T05:42:09.773Z,16.30
2018-02-17T05:44:37.382Z,18.43
2018-02-17T05:47:05.906Z,17.70
2018-02-17T05:49:37.086Z,16.93
2018-02-17T05:52:04.690Z,16.97
2018-02-17T05:54:32.311Z,17.47
2018-02-17T05:56:59.882Z,17.13
2018-02-17T05:59:27.458Z,16.60
2018-02-17T06:01:55.066Z,18.17
2018-02-17T06:04:22.631Z,18.93
2018-02-17T06:06:50.408Z,18.73
2018-02-17T06:09:17.969Z,19.67
2018-02-17T06:11:45.541Z,21.00
2018-02-17T06:14:13.151Z,19.97
2018-02-17T06:16:40.716Z,18.47
2018-02-17T06:19:08.326Z,17.63
2018-02-17T06:21:36.660Z,18.77
2018-02-17T06:24:04.285Z,17.97
2018-02-17T06:26:31.853Z,20.77
2018-02-17T06:28:59.435Z,18.97
2018-02-17T06:31:27.035Z,19.70
2018-02-17T06:33:54.596Z,18.13
2018-02-17T06:36:22.198Z,20.40
2018-02-17T06:38:49.772Z,19.60
2018-02-17T06:41:17.386Z,22.50
2018-02-17T06:43:44.953Z,20.03
2018-02-17T06:46:12.524Z,18.93
2018-02-17T06:48:40.898Z,18.67
2018-02-17T06:51:08.490Z,20.47
2018-02-17T06:53:36.816Z,21.37
2018-02-17T06:56:04.386Z,23.30
2018-02-17T06:58:31.951Z,26.13
2018-02-17T07:01:00.320Z,23.90
2018-02-17T07:03:27.917Z,21.80
2018-02-17T07:05:55.521Z,22.73
2018-02-17T07:08:23.086Z,23.93
2018-02-17T07:10:50.693Z,20.60
2018-02-17T07:13:18.306Z,24.00
2018-02-17T07:15:45.879Z,21.27
2018-02-17T07:18:13.483Z,20.27
2018-02-17T07:20:41.058Z,21.23
2018-02-17T07:23:08.663Z,22.10
2018-02-17T07:25:36.257Z,21.70
2018-02-17T07:28:03.868Z,21.67
2018-02-17T07:30:31.434Z,21.63
2018-02-17T07:32:59.045Z,23.23
2018-02-17T07:35:26.622Z,21.23
2018-02-17T07:37:54.245Z,20.10
2018-02-17T07:40:21.815Z,21.03
2018-02-17T07:42:49.402Z,19.20
2018-02-17T07:45:17.008Z,21.00
2018-02-17T07:47:44.576Z,19.80
2018-02-17T07:50:12.207Z,22.17
2018-02-17T07:52:42.724Z,21.60
2018-02-17T07:55:11.846Z,22.73
2018-02-17T07:57:39.412Z,20.60
2018-02-17T08:00:07.051Z,22.97
2018-02-17T08:02:34.660Z,24.30
2018-02-17T08:05:02.242Z,22.00
2018-02-17T08:07:29.854Z,22.40
2018-02-17T08:09:57.476Z,23.23
2018-02-17T08:12:25.053Z,21.90
2018-02-17T08:14:56.500Z,23.47
2018-02-17T08:17:25.897Z,24.03
2018-02-17T08:19:55.400Z,23.27
2018-02-17T08:22:25.988Z,26.37
2018-02-17T08:24:55.452Z,26.33
2018-02-17T08:27:25.009Z,26.23
2018-02-17T08:29:53.901Z,25.23
2018-02-17T08:32:24.065Z,25.23
2018-02-17T08:34:51.642Z,25.37
2018-02-17T08:37:19.263Z,29.07
2018-02-17T08:39:46.840Z,30.40
2018-02-17T08:42:14.409Z,30.03
2018-02-17T08:44:42.017Z,30.53
2018-02-17T08:47:09.585Z,32.10
2018-02-17T08:49:37.921Z,35.27
2018-02-17T08:52:05.554Z,32.87
2018-02-17T08:54:33.146Z,31.67
2018-02-17T08:57:00.713Z,33.33
2018-02-17T08:59:28.316Z,29.17
2018-02-17T09:01:55.891Z,32.07
2018-02-17T09:04:23.506Z,33.47
2018-02-17T09:06:51.080Z,29.63
2018-02-17T09:09:18.639Z,34.47
2018-02-17T09:11:46.299Z,32.57
2018-02-17T09:14:13.866Z,34.77
2018-02-17T09:16:42.246Z,35.37
2018-02-17T09:19:09.814Z,37.27
2018-02-17T09:21:37.390Z,37.47
2018-02-17T09:24:05.762Z,41.30
2018-02-17T09:26:34.157Z,43.40
2018-02-17T09:29:01.722Z,42.10
2018-02-17T09:31:29.286Z,40.87
2018-02-17T09:33:56.894Z,40.47
2018-02-17T09:36:24.489Z,40.80
2018-02-17T09:38:52.060Z,40.33
2018-02-17T09:41:19.694Z,42.33
2018-02-17T09:43:47.313Z,40.00
2018-02-17T09:46:14.880Z,39.07
2018-02-17T09:48:42.483Z,40.03
2018-02-17T09:51:10.048Z,43.57
2018-02-17T09:53:37.649Z,40.77
2018-02-17T09:56:05.222Z,38.40
2018-02-17T09:58:32.822Z,38.50
2018-02-17T10:01:00.392Z,42.00
2018-02-17T10:03:28.759Z,44.87
2018-02-17T10:05:56.322Z,48.13
2018-02-17T10:08:23.916Z,46.63
2018-02-17T10:10:51.474Z,45.00
2018-02-17T10:13:19.084Z,45.70
2018-02-17T10:15:46.724Z,46.27
2018-02-17T10:18:14.285Z,46.37
2018-02-17T10:20:41.900Z,43.60
2018-02-17T10:23:10.230Z,42.43
2018-02-17T10:25:37.846Z,43.80
2018-02-17T10:28:05.410Z,43.80
2018-02-17T10:30:32.975Z,41.13
2018-02-17T10:33:00.581Z,39.97
2018-02-17T10:35:30.073Z,39.90
2018-02-17T10:37:57.667Z,37.27
2018-02-17T10:40:25.244Z,34.40
2018-02-17T10:42:53.609Z,35.87
2018-02-17T10:45:21.177Z,34.53
2018-02-17T10:47:48.787Z,32.60
2018-02-17T10:50:16.386Z,32.13
2018-02-17T10:52:43.954Z,30.10
2018-02-17T10:55:11.557Z,31.27
2018-02-17T10:57:39.108Z,29.50
2018-02-17T11:00:06.730Z,32.00
2018-02-17T11:02:34.285Z,29.47
2018-02-17T11:05:01.847Z,28.93
2018-02-17T11:07:29.460Z,29.43
2018-02-17T11:09:57.021Z,26.40
2018-02-17T11:12:24.581Z,27.10
2018-02-17T11:14:52.186Z,27.53
2018-02-17T11:17:19.758Z,27.40
2018-02-17T11:19:47.358Z,27.67
2018-02-17T11:22:14.918Z,27.23
2018-02-17T11:24:42.513Z,26.07
2018-02-17T11:27:10.119Z,24.17
2018-02-17T11:29:37.729Z,23.50
2018-02-17T11:32:05.337Z,25.90
2018-02-17T11:34:32.909Z,25.63
2018-02-17T11:37:00.522Z,24.53
2018-02-17T11:39:28.085Z,25.67
2018-02-17T11:41:55.654Z,25.10
2018-02-17T11:44:23.254Z,25.97
2018-02-17T11:46:50.827Z,24.33
2018-02-17T11:49:19.218Z,22.50
2018-02-17T11:51:46.781Z,26.33
2018-02-17T11:54:14.347Z,24.83
2018-02-17T11:56:41.955Z,23.47
2018-02-17T11:59:09.528Z,23.90
2018-02-17T12:01:37.908Z,22.53
2018-02-17T12:04:06.023Z,23.37
2018-02-17T12:06:33.597Z,22.70
2018-02-17T12:09:01.221Z,23.23
2018-02-17T12:11:28.787Z,22.50
2018-02-17T12:13:56.397Z,23.80
2018-02-17T12:16:23.961Z,21.13
2018-02-17T12:18:51.517Z,22.13
2018-02-17T12:21:19.175Z,22.53
2018-02-17T12:23:46.779Z,21.33
2018-02-17T12:26:15.146Z,21.30
2018-02-17T12:28:43.184Z,21.70
2018-02-17T12:31:10.797Z,22.07
2018-02-17T12:33:39.172Z,23.93
2018-02-17T12:36:06.810Z,21.77
2018-02-17T12:38:34.445Z,24.17
2018-02-17T12:41:02.033Z,23.70
2018-02-17T12:43:29.633Z,23.67
2018-02-17T12:45:57.191Z,25.30
2018-02-17T12:48:25.513Z,26.57
2018-02-17T12:50:53.183Z,27.20
2018-02-17T12:53:20.756Z,26.70
2018-02-17T12:55:48.369Z,26.03
2018-02-17T12:58:15.924Z,24.37
2018-02-17T13:00:43.530Z,23.27
2018-02-17T13:03:11.110Z,21.33
2018-02-17T13:05:38.671Z,21.43
2018-02-17T13:08:06.275Z,21.10
2018-02-17T13:10:33.833Z,20.70
2018-02-17T13:13:01.428Z,20.57
2018-02-17T13:15:28.996Z,19.80
2018-02-17T13:17:56.606Z,21.27
2018-02-17T13:20:24.202Z,19.00
2018-02-17T13:22:51.757Z,18.47
2018-02-17T13:25:19.374Z,18.67
2018-02-17T13:27:47.707Z,18.90
2018-02-17T13:30:15.265Z,17.73
2018-02-17T13:32:42.882Z,18.43
2018-02-17T13:35:11.206Z,18.00
2018-02-17T13:37:38.769Z,20.53
2018-02-17T13:40:06.381Z,20.13
2018-02-17T13:42:33.945Z,20.90
2018-02-17T13:45:02.270Z,20.10
2018-02-17T13:47:29.866Z,19.77
2018-02-17T13:49:58.239Z,20.17
2018-02-17T13:52:25.997Z,20.17
2018-02-17T13:54:53.735Z,20.97
2018-02-17T13:57:21.349Z,22.20
2018-02-17T13:59:49.038Z,20.00
2018-02-17T14:02:16.633Z,21.70
2018-02-17T14:04:44.265Z,21.40
2018-02-17T14:07:12.178Z,21.80
2018-02-17T14:09:39.781Z,21.73
2018-02-17T14:12:07.376Z,21.83
2018-02-17T14:14:34.972Z,22.43
2018-02-17T14:17:02.570Z,22.53
2018-02-17T14:19:32.323Z,23.47
2018-02-17T14:22:00.765Z,22.67
2018-02-17T14:24:28.548Z,23.17
2018-02-17T14:26:56.114Z,23.77
2018-02-17T14:29:23.773Z,22.33
2018-02-17T14:31:54.466Z,21.97
2018-02-17T14:34:22.601Z,23.17
2018-02-17T14:36:50.986Z,25.43
2018-02-17T14:39:18.587Z,24.73
2018-02-17T14:41:46.185Z,24.80
2018-02-17T14:44:13.978Z,28.10
2018-02-17T14:46:41.573Z,26.83
2018-02-17T14:49:09.158Z,27.20
2018-02-17T14:51:36.751Z,26.33
2018-02-17T14:54:04.349Z,25.23
2018-02-17T14:56:32.170Z,25.20
2018-02-17T14:59:01.143Z,28.47
2018-02-17T15:01:28.738Z,25.23
2018-02-17T15:03:56.335Z,25.80
2018-02-17T15:06:23.940Z,24.87
2018-02-17T15:08:51.630Z,24.60
2018-02-17T15:11:19.235Z,24.93
2018-02-17T15:13:46.815Z,23.87
2018-02-17T15:16:14.424Z,25.10
2018-02-17T15:18:41.990Z,25.30
2018-02-17T15:21:09.545Z,27.17
2018-02-17T15:23:37.137Z,25.27
2018-02-17T15:26:04.738Z,26.03
2018-02-17T15:28:32.336Z,28.70
2018-02-17T15:30:59.902Z,27.60
2018-02-17T15:33:27.501Z,26.70
2018-02-17T15:35:55.091Z,27.43
2018-02-17T15:38:22.653Z,27.90
2018-02-17T15:40:51.675Z,26.93
2018-02-17T15:43:22.477Z,31.07
2018-02-17T15:45:52.094Z,27.63
2018-02-17T15:48:22.889Z,26.60
2018-02-17T15:50:50.751Z,25.93
2018-02-17T15:53:18.368Z,27.03
2018-02-17T15:55:45.974Z,28.63
2018-02-17T15:58:13.757Z,27.67
2018-02-17T16:00:41.323Z,28.20
2018-02-17T16:03:08.930Z,29.60
2018-02-17T16:05:37.249Z,28.90
2018-02-17T16:08:04.847Z,27.10
2018-02-17T16:10:32.418Z,27.77
2018-02-17T16:12:59.986Z,28.90
2018-02-17T16:15:27.745Z,27.37
2018-02-17T16:17:55.352Z,26.73
2018-02-17T16:20:22.952Z,29.70
2018-02-17T16:22:50.507Z,27.97
2018-02-17T16:25:18.116Z,28.63
2018-02-17T16:27:45.686Z,28.07
2018-02-17T16:30:13.256Z,28.47
2018-02-17T16:32:40.869Z,29.27
2018-02-17T16:35:08.436Z,27.87
2018-02-17T16:37:36.039Z,30.20
2018-02-17T16:40:03.670Z,31.37
2018-02-17T16:42:31.248Z,27.43
2018-02-17T16:44:58.868Z,28.97
2018-02-17T16:47:26.438Z,30.63
2018-02-17T16:49:54.061Z,31.40
2018-02-17T16:52:21.652Z,31.10
2018-02-17T16:54:49.279Z,31.47
2018-02-17T16:57:18.325Z,31.77
2018-02-17T16:59:47.378Z,28.13
2018-02-17T17:02:15.410Z,28.70
2018-02-17T17:04:43.089Z,28.13
2018-02-17T17:07:11.842Z,28.33
2018-02-17T17:09:39.992Z,29.27
2018-02-17T17:12:09.441Z,29.73
2018-02-17T17:14:40.317Z,28.90
2018-02-17T17:17:08.927Z,28.53
2018-02-17T17:19:37.667Z,28.43
2018-02-17T17:22:05.770Z,29.83
2018-02-17T17:24:35.017Z,27.40
2018-02-17T17:27:04.124Z,27.23
2018-02-17T17:29:33.347Z,24.70
2018-02-17T17:32:01.967Z,27.80
2018-02-17T17:34:30.116Z,27.20
2018-02-17T17:36:58.811Z,26.10
2018-02-17T17:39:26.461Z,26.67
2018-02-17T17:41:56.025Z,27.50
2018-02-17T17:44:26.321Z,28.20
2018-02-17T17:46:55.981Z,28.77
2018-02-17T17:49:28.691Z,28.63
2018-02-17T17:51:56.365Z,29.90
2018-02-17T17:54:23.949Z,29.60
2018-02-17T17:56:51.535Z,29.20
2018-02-17T17:59:19.149Z,29.90
2018-02-17T18:01:46.737Z,28.43
2018-02-17T18:04:14.316Z,29.43
2018-02-17T18:06:42.708Z,30.90
2018-02-17T18:09:10.296Z,30.47
2018-02-17T18:11:38.077Z,31.00
2018-02-17T18:14:06.612Z,31.37
2018-02-17T18:16:34.202Z,29.80
2018-02-17T18:19:01.780Z,32.57
2018-02-17T18:21:29.406Z,31.90
2018-02-17T18:23:57.049Z,33.13
2018-02-17T18:26:26.124Z,32.83
2018-02-17T18:28:53.757Z,34.70
2018-02-17T18:31:21.335Z,36.83
2018-02-17T18:33:48.916Z,33.83
2018-02-17T18:36:16.543Z,34.33
2018-02-17T18:38:44.172Z,32.63
2018-02-17T18:41:11.754Z,32.67
2018-02-17T18:43:39.366Z,32.93
2018-02-17T18:46:06.972Z,35.80
2018-02-17T18:48:34.557Z,34.73
2018-02-17T18:51:02.181Z,33.03
2018-02-17T18:53:29.758Z,40.97
2018-02-17T18:55:57.386Z,37.90
2018-02-17T18:58:25.735Z,38.10
2018-02-17T19:00:53.352Z,44.77
2018-02-17T19:03:20.981Z,44.07
2018-02-17T19:05:49.377Z,43.40
2018-02-17T19:08:17.724Z,47.67
2018-02-17T19:10:45.360Z,44.93
2018-02-17T19:13:12.934Z,45.63
2018-02-17T19:15:40.548Z,44.70
2018-02-17T19:18:08.178Z,47.43
2018-02-17T19:20:38.509Z,52.40
2018-02-17T19:23:06.481Z,51.13
2018-02-17T19:25:34.909Z,51.90
2018-02-17T19:28:02.540Z,49.37
2018-02-17T19:30:30.124Z,50.63
2018-02-17T19:32:57.724Z,63.63
2018-02-17T19:35:25.356Z,53.37
2018-02-17T19:37:52.979Z,54.10
2018-02-17T19:40:20.556Z,52.27
2018-02-17T19:42:48.146Z,54.47
2018-02-17T19:45:15.767Z,52.93
2018-02-17T19:47:43.360Z,51.33
2018-02-17T19:50:10.981Z,54.33
2018-02-17T19:52:41.964Z,56.30
2018-02-17T19:55:09.591Z,51.97
2018-02-17T19:57:37.983Z,43.73
2018-02-17T20:00:05.563Z,48.80
2018-02-17T20:02:33.141Z,57.30
2018-02-17T20:05:00.771Z,50.27
2018-02-17T20:07:28.376Z,51.57
2018-02-17T20:09:56.022Z,50.57
2018-02-17T20:12:23.612Z,46.93
2018-02-17T20:14:51.198Z,43.47
2018-02-17T20:17:18.827Z,46.63
2018-02-17T20:19:46.469Z,56.33
2018-02-17T20:22:14.050Z,47.00
2018-02-17T20:24:41.636Z,51.00
2018-02-17T20:27:09.274Z,46.03
2018-02-17T20:29:36.861Z,48.73
2018-02-17T20:32:04.483Z,45.63
2018-02-17T20:34:32.072Z,49.63
2018-02-17T20:36:59.692Z,45.73
2018-02-17T20:39:29.931Z,45.20
2018-02-17T20:41:57.516Z,46.40
2018-02-17T20:44:25.135Z,45.27
2018-02-17T20:46:52.707Z,44.93
2018-02-17T20:49:20.331Z,49.20
2018-02-17T20:51:47.914Z,42.10
2018-02-17T20:54:15.537Z,47.70
2018-02-17T20:56:43.122Z,40.23
2018-02-17T20:59:10.755Z,44.73
2018-02-17T21:01:38.338Z,42.17
2018-02-17T21:04:05.932Z,44.30
2018-02-17T21:06:33.556Z,41.77
2018-02-17T21:09:01.136Z,39.73
2018-02-17T21:11:28.760Z,41.53
2018-02-17T21:13:57.101Z,38.23
2018-02-17T21:16:24.723Z,41.07
2018-02-17T21:18:52.338Z,40.30
2018-02-17T21:21:19.968Z,41.67
2018-02-17T21:23:47.659Z,40.53
2018-02-17T21:26:15.204Z,37.43
2018-02-17T21:28:42.829Z,39.03
2018-02-17T21:31:10.410Z,40.90
2018-02-17T21:33:38.045Z,37.53
2018-02-17T21:36:05.678Z,41.00
2018-02-17T21:38:33.269Z,38.07
2018-02-17T21:41:00.956Z,39.07
2018-02-17T21:43:28.580Z,36.80
2018-02-17T21:45:56.162Z,40.33
2018-02-17T21:48:23.746Z,38.97
2018-02-17T21:50:51.381Z,37.77
2018-02-17T21:53:18.966Z,35.90
2018-02-17T21:55:46.602Z,37.50
2018-02-17T21:58:14.186Z,37.63
2018-02-17T22:00:41.760Z,38.03
2018-02-17T22:03:09.381Z,34.80
2018-02-17T22:05:36.956Z,35.13
2018-02-17T22:08:04.571Z,36.73
2018-02-17T22:10:32.155Z,32.77
2018-02-17T22:12:59.782Z,40.83
2018-02-17T22:15:27.432Z,36.63
2018-02-17T22:17:55.007Z,35.43
2018-02-17T22:20:22.624Z,33.13
2018-02-17T22:22:50.201Z,34.27
2018-02-17T22:25:17.824Z,36.00
2018-02-17T22:27:45.448Z,33.70
2018-02-17T22:30:13.064Z,37.10
2018-02-17T22:32:40.659Z,36.30
2018-02-17T22:35:08.267Z,33.10
2018-02-17T22:37:35.884Z,34.13
2018-02-17T22:40:03.657Z,33.10
2018-02-17T22:42:31.272Z,33.70
2018-02-17T22:44:58.856Z,32.83
2018-02-17T22:47:26.501Z,32.10
2018-02-17T22:49:54.388Z,36.73
2018-02-17T22:52:21.998Z,33.70
2018-02-17T22:54:49.620Z,32.70
2018-02-17T22:57:17.234Z,32.37
2018-02-17T22:59:44.859Z,32.97
2018-02-17T23:02:12.440Z,32.97
2018-02-17T23:04:40.020Z,30.60
2018-02-17T23:07:07.675Z,30.40
2018-02-17T23:09:35.255Z,32.60
2018-02-17T23:12:03.073Z,31.83
2018-02-17T23:14:30.692Z,31.67
2018-02-17T23:16:58.373Z,32.20
2018-02-17T23:19:25.988Z,29.57
2018-02-17T23:21:53.596Z,30.70
2018-02-17T23:24:21.225Z,34.17
2018-02-17T23:26:48.800Z,30.77
2018-02-17T23:29:16.383Z,31.87
2018-02-17T23:31:44.014Z,34.80
2018-02-17T23:34:12.437Z,29.97
2018-02-17T23:36:40.015Z,31.27
2018-02-17T23:39:07.629Z,30.57
2018-02-17T23:41:35.212Z,31.73
2018-02-17T23:44:02.839Z,32.13
2018-02-17T23:46:30.429Z,31.97
2018-02-17T23:48:58.056Z,31.63
2018-02-17T23:51:25.648Z,29.93
2018-02-17T23:53:53.284Z,31.80
2018-02-17T23:56:20.972Z,31.67
2018-02-17T23:58:48.778Z,31.53
